Time;durP1;ratioP1;P1;durP2;ratioP2;P2;SDS_P1;SDS_P2;PMS_P1;PMS_P2;Temp;Humidity;BMP_temperature;BMP_pressure;BME280_temperature;BME280_humidity;BME280_pressure;Samples;Min_cycle;Max_cycle;Signal;HPM_P1;HPM_P2
2023/05/01 00:01:19;;;;;;;3.63;3.30;;;13.30;70.60;;;;;;5044359;28;20931;-69
2023/05/01 00:03:47;;;;;;;3.60;3.20;;;13.30;71.20;;;;;;5046275;28;20528;-69
2023/05/01 00:06:13;;;;;;;3.20;2.90;;;13.30;70.90;;;;;;5039285;28;20451;-69
2023/05/01 00:08:40;;;;;;;3.47;3.10;;;13.30;70.20;;;;;;5045003;28;20488;-69
2023/05/01 00:11:08;;;;;;;3.20;2.90;;;13.30;70.20;;;;;;5041131;28;20460;-68
2023/05/01 00:13:35;;;;;;;3.70;3.40;;;13.30;69.80;;;;;;5041804;28;20524;-69
2023/05/01 00:16:02;;;;;;;3.40;2.80;;;13.30;70.40;;;;;;5048966;28;20436;-68
2023/05/01 00:18:30;;;;;;;3.55;3.20;;;13.30;71.20;;;;;;5043621;28;20812;-68
2023/05/01 00:20:58;;;;;;;4.05;3.08;;;13.30;70.40;;;;;;5040693;28;20932;-68
2023/05/01 00:23:25;;;;;;;3.80;3.10;;;13.30;70.90;;;;;;5042318;28;20448;-69
2023/05/01 00:25:51;;;;;;;3.55;3.05;;;13.30;69.80;;;;;;5047063;28;20446;-70
2023/05/01 00:28:18;;;;;;;3.70;2.85;;;13.30;70.30;;;;;;5047958;28;20503;-68
2023/05/01 00:30:45;;;;;;;3.47;2.70;;;13.30;69.60;;;;;;5044666;28;20466;-70
2023/05/01 00:33:12;;;;;;;3.20;2.88;;;13.30;69.50;;;;;;5052904;28;20437;-69
2023/05/01 00:35:40;;;;;;;3.85;3.17;;;13.30;69.80;;;;;;5037555;28;20433;-68
2023/05/01 00:38:08;;;;;;;3.65;3.25;;;13.30;69.80;;;;;;5037678;28;20468;-68
2023/05/01 00:40:41;;;;;;;3.20;2.90;;;13.30;69.60;;;;;;5044664;28;20441;-69
2023/05/01 00:43:08;;;;;;;3.33;3.03;;;13.30;69.70;;;;;;5045544;28;20449;-68
2023/05/01 00:45:35;;;;;;;3.63;3.33;;;13.30;69.00;;;;;;5049899;28;20855;-68
2023/05/01 00:48:02;;;;;;;3.25;2.97;;;13.20;70.40;;;;;;5045046;28;20441;-69
2023/05/01 00:50:29;;;;;;;3.50;3.20;;;13.20;69.90;;;;;;5048019;28;20893;-68
2023/05/01 00:52:56;;;;;;;4.18;3.40;;;13.20;70.50;;;;;;5044047;28;20745;-68
2023/05/01 00:55:26;;;;;;;3.03;2.72;;;13.20;69.60;;;;;;5048099;28;20770;-68
2023/05/01 00:57:53;;;;;;;3.88;2.90;;;13.20;69.10;;;;;;5050827;28;20421;-68
2023/05/01 01:00:23;;;;;;;3.83;3.10;;;13.20;69.00;;;;;;5039983;28;20449;-68
2023/05/01 01:02:50;;;;;;;3.30;3.00;;;13.20;67.90;;;;;;5043454;28;20464;-68
2023/05/01 01:05:17;;;;;;;3.97;3.10;;;13.20;69.70;;;;;;5037284;28;20426;-69
2023/05/01 01:07:53;;;;;;;3.70;3.30;;;13.20;68.10;;;;;;5043957;28;20440;-68
2023/05/01 01:10:28;;;;;;;3.45;3.10;;;13.20;68.20;;;;;;5030992;28;20427;-70
2023/05/01 01:13:04;;;;;;;3.60;3.30;;;13.20;67.80;;;;;;5042092;28;20815;-68
2023/05/01 01:15:35;;;;;;;3.77;3.47;;;13.20;67.90;;;;;;5040821;28;20429;-70
2023/05/01 01:18:08;;;;;;;3.70;3.40;;;13.20;67.80;;;;;;5038893;28;20868;-69
2023/05/01 01:20:40;;;;;;;4.40;3.63;;;13.20;66.70;;;;;;5041219;28;20903;-68
2023/05/01 01:23:41;;;;;;;4.00;3.70;;;13.20;67.10;;;;;;5048746;28;20825;-69
2023/05/01 01:26:37;;;;;;;4.38;3.97;;;13.20;67.90;;;;;;5043641;28;20433;-69
2023/05/01 01:29:40;;;;;;;4.60;4.07;;;13.20;69.20;;;;;;5039331;28;20522;-69
2023/05/01 01:32:19;;;;;;;4.18;3.78;;;13.20;69.90;;;;;;5042143;28;20544;-69
2023/05/01 01:34:52;;;;;;;4.03;3.60;;;13.20;70.90;;;;;;5035597;28;20612;-68
2023/05/01 01:37:22;;;;;;;4.20;3.80;;;13.20;71.40;;;;;;5047655;28;20428;-69
2023/05/01 01:39:54;;;;;;;3.58;3.28;;;13.20;70.40;;;;;;5042838;28;20444;-69
2023/05/01 01:42:26;;;;;;;3.70;3.40;;;13.20;70.30;;;;;;5036425;28;20449;-69
2023/05/01 01:44:55;;;;;;;4.40;3.40;;;13.10;69.00;;;;;;5042909;28;20457;-69
2023/05/01 01:47:28;;;;;;;3.70;3.40;;;13.10;69.50;;;;;;5041684;28;20935;-68
2023/05/01 01:49:57;;;;;;;4.78;3.47;;;13.10;69.60;;;;;;5034659;28;20902;-69
2023/05/01 01:52:26;;;;;;;3.70;3.40;;;13.10;70.50;;;;;;5047356;28;20824;-69
2023/05/01 01:54:57;;;;;;;4.00;3.70;;;13.10;70.10;;;;;;5055341;28;20864;-68
2023/05/01 01:57:25;;;;;;;4.10;3.70;;;13.10;70.40;;;;;;5036539;28;20817;-69
2023/05/01 01:59:54;;;;;;;3.90;3.50;;;13.10;69.50;;;;;;5036521;28;20437;-69
2023/05/01 02:02:22;;;;;;;4.00;3.60;;;13.10;70.50;;;;;;5044636;28;20647;-68
2023/05/01 02:04:51;;;;;;;4.78;3.70;;;13.00;70.80;;;;;;5053883;28;20948;-69
2023/05/01 02:07:20;;;;;;;3.90;3.50;;;13.00;70.60;;;;;;5050534;28;20443;-69
2023/05/01 02:09:50;;;;;;;3.80;3.50;;;13.00;69.80;;;;;;5048129;28;20427;-69
2023/05/01 02:12:19;;;;;;;4.00;3.60;;;13.00;69.70;;;;;;5043493;28;20431;-69
2023/05/01 02:14:48;;;;;;;4.50;3.70;;;13.00;69.80;;;;;;5045146;28;20886;-68
2023/05/01 02:17:15;;;;;;;4.80;3.58;;;13.00;70.30;;;;;;5042951;28;20441;-68
2023/05/01 02:19:44;;;;;;;3.80;3.50;;;13.00;70.40;;;;;;5046890;28;20450;-69
2023/05/01 02:22:12;;;;;;;4.00;3.60;;;13.00;70.70;;;;;;5038092;28;20689;-68
2023/05/01 02:24:43;;;;;;;3.72;3.42;;;13.00;71.00;;;;;;5051894;28;20423;-69
2023/05/01 02:27:14;;;;;;;4.30;3.50;;;13.00;70.30;;;;;;5037959;28;20950;-69
2023/05/01 02:29:41;;;;;;;3.60;3.10;;;13.00;71.10;;;;;;5047288;28;20431;-71
2023/05/01 02:32:08;;;;;;;3.90;3.17;;;13.00;70.90;;;;;;5050337;28;20923;-70
2023/05/01 02:34:35;;;;;;;4.40;3.35;;;13.00;70.00;;;;;;5049732;28;20888;-70
2023/05/01 02:37:02;;;;;;;3.30;3.08;;;13.00;70.50;;;;;;5069624;28;20411;-68
2023/05/01 02:39:29;;;;;;;3.30;3.00;;;12.90;70.30;;;;;;5050588;28;20430;-69
2023/05/01 02:41:58;;;;;;;4.13;3.20;;;12.90;70.50;;;;;;5048001;28;20941;-68
2023/05/01 02:44:27;;;;;;;4.65;3.30;;;12.90;70.70;;;;;;5055675;28;20514;-69
2023/05/01 02:46:56;;;;;;;3.90;3.50;;;12.90;70.60;;;;;;5053207;28;20431;-69
2023/05/01 02:49:23;;;;;;;3.60;3.30;;;12.90;70.70;;;;;;5050267;28;20542;-68
2023/05/01 02:51:50;;;;;;;3.80;3.35;;;12.90;71.70;;;;;;5054864;28;20518;-69
2023/05/01 02:54:17;;;;;;;3.40;3.10;;;12.90;71.20;;;;;;5053525;28;20413;-69
2023/05/01 02:56:44;;;;;;;4.90;3.45;;;12.90;71.90;;;;;;5047174;28;20452;-69
2023/05/01 02:59:12;;;;;;;4.18;3.70;;;12.80;72.70;;;;;;5050585;28;20826;-69
2023/05/01 03:01:39;;;;;;;3.75;3.45;;;12.90;72.80;;;;;;5049447;28;20423;-70
2023/05/01 03:04:06;;;;;;;3.60;3.30;;;12.80;73.60;;;;;;5050064;28;20491;-70
2023/05/01 03:06:33;;;;;;;4.10;3.70;;;12.80;72.60;;;;;;5064139;28;20856;-70
2023/05/01 03:08:59;;;;;;;3.60;3.30;;;12.80;73.00;;;;;;5054416;28;20440;-69
2023/05/01 03:11:26;;;;;;;3.88;3.50;;;12.70;73.30;;;;;;5049316;28;20452;-69
2023/05/01 03:13:53;;;;;;;4.00;3.60;;;12.70;73.70;;;;;;5053778;28;20469;-68
2023/05/01 03:16:21;;;;;;;3.70;3.40;;;12.70;74.30;;;;;;5046421;28;21203;-70
2023/05/01 03:18:48;;;;;;;4.00;3.50;;;12.70;74.00;;;;;;5050166;28;21730;-69
2023/05/01 03:21:15;;;;;;;4.20;3.80;;;12.60;74.40;;;;;;5056412;28;20835;-69
2023/05/01 03:23:41;;;;;;;4.80;3.57;;;12.60;75.00;;;;;;5049755;28;20462;-69
2023/05/01 03:26:08;;;;;;;5.30;4.30;;;12.60;74.40;;;;;;5049188;28;21083;-68
2023/05/01 03:28:35;;;;;;;3.90;3.60;;;12.60;74.10;;;;;;5055767;28;20524;-69
2023/05/01 03:31:01;;;;;;;3.90;3.47;;;12.50;73.90;;;;;;5045565;28;20425;-69
2023/05/01 03:33:30;;;;;;;3.70;3.40;;;12.50;74.50;;;;;;5049341;28;20428;-69
2023/05/01 03:36:02;;;;;;;4.00;3.60;;;12.40;75.20;;;;;;5056222;28;20444;-68
2023/05/01 03:38:29;;;;;;;4.40;4.00;;;12.40;75.60;;;;;;5044650;28;20427;-69
2023/05/01 03:40:56;;;;;;;4.28;3.88;;;12.40;75.20;;;;;;5044438;28;20421;-70
2023/05/01 03:43:23;;;;;;;4.00;3.60;;;12.30;75.90;;;;;;5042793;28;20417;-68
2023/05/01 03:45:50;;;;;;;4.20;3.80;;;12.30;76.50;;;;;;5054573;28;20429;-69
2023/05/01 03:48:17;;;;;;;4.30;3.90;;;12.20;76.20;;;;;;5042474;28;20943;-68
2023/05/01 03:50:46;;;;;;;4.00;3.70;;;12.20;76.60;;;;;;5046369;28;20506;-69
2023/05/01 03:53:13;;;;;;;4.67;4.17;;;12.20;76.90;;;;;;5046251;28;20438;-70
2023/05/01 03:55:40;;;;;;;4.10;3.70;;;12.10;77.40;;;;;;5045991;28;20586;-71
2023/05/01 03:58:07;;;;;;;4.40;4.00;;;12.20;78.40;;;;;;5048823;22;20713;-69
2023/05/01 04:00:34;;;;;;;5.28;4.07;;;12.10;78.70;;;;;;5028478;28;20443;-68
2023/05/01 04:03:00;;;;;;;4.40;4.00;;;12.10;79.40;;;;;;5029786;28;20501;-68
2023/05/01 04:05:27;;;;;;;4.37;4.03;;;12.10;79.80;;;;;;5031123;28;20497;-67
2023/05/01 04:07:55;;;;;;;4.00;3.70;;;12.10;80.30;;;;;;5037112;28;20481;-67
2023/05/01 04:10:22;;;;;;;4.85;4.35;;;12.10;80.00;;;;;;5026892;28;20431;-67
2023/05/01 04:12:49;;;;;;;5.10;3.63;;;12.00;80.10;;;;;;5028055;28;20431;-67
2023/05/01 04:15:16;;;;;;;4.53;4.13;;;12.00;80.50;;;;;;5030016;28;20481;-68
2023/05/01 04:17:43;;;;;;;4.72;4.32;;;12.00;80.80;;;;;;5028117;28;20430;-67
2023/05/01 04:20:11;;;;;;;5.15;4.65;;;11.90;81.20;;;;;;5031427;28;20497;-67
2023/05/01 04:22:38;;;;;;;4.60;4.20;;;11.90;80.60;;;;;;5024424;28;20437;-67
2023/05/01 04:25:07;;;;;;;4.25;3.85;;;11.90;79.70;;;;;;5040509;28;20417;-67
2023/05/01 04:27:34;;;;;;;4.80;4.28;;;11.90;80.40;;;;;;5022927;28;21002;-67
2023/05/01 04:30:01;;;;;;;4.38;3.97;;;11.80;80.60;;;;;;5030787;28;20704;-67
2023/05/01 04:32:27;;;;;;;4.60;4.20;;;11.80;81.10;;;;;;5030125;28;21197;-67
2023/05/01 04:34:54;;;;;;;4.30;3.90;;;11.80;80.60;;;;;;5042277;28;20424;-68
2023/05/01 04:37:21;;;;;;;5.00;4.50;;;11.80;81.00;;;;;;5033087;28;20520;-66
2023/05/01 04:39:48;;;;;;;5.18;4.10;;;11.80;81.50;;;;;;5030175;28;20430;-67
2023/05/01 04:42:16;;;;;;;4.60;4.10;;;11.80;81.60;;;;;;5026821;28;20431;-67
2023/05/01 04:44:42;;;;;;;4.53;4.13;;;11.80;81.60;;;;;;5028991;28;20754;-68
2023/05/01 04:47:09;;;;;;;4.40;4.00;;;11.80;81.40;;;;;;5029428;28;20538;-67
2023/05/01 04:49:37;;;;;;;4.00;3.70;;;11.80;81.70;;;;;;5035221;28;20434;-67
2023/05/01 04:52:04;;;;;;;4.88;4.38;;;11.80;81.40;;;;;;5024159;28;20936;-68
2023/05/01 04:54:31;;;;;;;4.20;3.80;;;11.90;82.90;;;;;;5038233;28;20423;-67
2023/05/01 04:56:57;;;;;;;4.70;4.00;;;11.90;81.40;;;;;;5032625;28;20439;-67
2023/05/01 04:59:25;;;;;;;4.68;4.18;;;11.90;81.70;;;;;;5030706;28;20415;-66
2023/05/01 05:01:52;;;;;;;4.53;4.05;;;11.90;80.70;;;;;;5030373;28;20434;-67
2023/05/01 05:04:19;;;;;;;5.00;4.50;;;12.00;81.60;;;;;;5030165;28;20414;-67
2023/05/01 05:06:45;;;;;;;5.22;4.40;;;12.00;81.40;;;;;;5031808;28;20442;-66
2023/05/01 05:09:12;;;;;;;4.20;3.90;;;12.00;81.00;;;;;;5030440;28;20453;-68
2023/05/01 05:11:40;;;;;;;4.70;4.20;;;12.10;80.30;;;;;;5034778;28;20425;-67
2023/05/01 05:14:06;;;;;;;5.03;4.20;;;12.10;80.10;;;;;;5030924;28;20434;-67
2023/05/01 05:16:35;;;;;;;4.60;4.20;;;12.10;80.00;;;;;;5029557;28;20441;-69
2023/05/01 05:19:02;;;;;;;5.30;4.13;;;12.10;79.90;;;;;;5030002;28;20508;-68
2023/05/01 05:21:28;;;;;;;4.65;4.22;;;12.20;79.90;;;;;;5035051;28;20427;-67
2023/05/01 05:23:55;;;;;;;4.80;4.40;;;12.20;79.70;;;;;;5035213;28;20935;-68
2023/05/01 05:26:22;;;;;;;4.70;4.30;;;12.20;79.30;;;;;;5037875;28;20431;-67
2023/05/01 05:28:50;;;;;;;5.10;4.60;;;12.20;79.50;;;;;;5030733;28;20813;-67
2023/05/01 05:31:16;;;;;;;5.55;4.20;;;12.20;79.50;;;;;;5051986;28;20411;-68
2023/05/01 05:33:45;;;;;;;4.53;3.90;;;12.30;78.00;;;;;;5054709;28;20423;-67
2023/05/01 05:36:11;;;;;;;3.92;3.63;;;12.30;77.30;;;;;;5047046;28;20456;-67
2023/05/01 05:38:39;;;;;;;4.72;3.80;;;12.30;77.40;;;;;;5043563;28;20419;-67
2023/05/01 05:41:06;;;;;;;4.50;4.10;;;12.30;76.60;;;;;;5029628;28;20439;-68
2023/05/01 05:43:32;;;;;;;4.50;4.20;;;12.30;76.80;;;;;;5031167;28;20433;-67
2023/05/01 05:45:59;;;;;;;4.80;4.10;;;12.40;76.60;;;;;;5031512;28;20437;-67
2023/05/01 05:48:26;;;;;;;4.57;3.90;;;12.40;76.60;;;;;;5025775;28;20440;-67
2023/05/01 05:50:55;;;;;;;4.22;3.70;;;12.40;76.60;;;;;;5037359;28;20427;-68
2023/05/01 05:53:22;;;;;;;4.63;4.25;;;12.40;77.40;;;;;;5028851;28;20457;-68
2023/05/01 05:55:49;;;;;;;4.90;4.47;;;12.50;76.50;;;;;;5030338;28;20442;-68
2023/05/01 05:58:18;;;;;;;4.60;4.05;;;12.60;76.30;;;;;;5032752;28;20425;-68
2023/05/01 06:00:47;;;;;;;4.60;4.20;;;12.60;76.20;;;;;;5038933;28;20430;-66
2023/05/01 06:03:14;;;;;;;4.82;4.43;;;12.70;75.80;;;;;;5028377;28;20514;-67
2023/05/01 06:05:41;;;;;;;5.15;3.90;;;12.80;75.50;;;;;;5035780;28;20515;-67
2023/05/01 06:08:10;;;;;;;4.22;3.70;;;12.80;75.80;;;;;;5027951;28;20873;-69
2023/05/01 06:10:38;;;;;;;4.05;3.42;;;12.90;74.80;;;;;;5028895;28;20437;-70
2023/05/01 06:13:05;;;;;;;3.75;3.45;;;12.90;74.90;;;;;;5036641;28;20451;-70
2023/05/01 06:15:32;;;;;;;4.35;3.40;;;13.00;74.50;;;;;;5037835;28;20434;-70
2023/05/01 06:17:59;;;;;;;4.40;4.00;;;13.00;74.30;;;;;;5029158;28;20985;-67
2023/05/01 06:20:26;;;;;;;4.35;3.60;;;13.10;74.30;;;;;;5030258;28;20420;-67
2023/05/01 06:22:52;;;;;;;4.17;3.43;;;13.10;73.40;;;;;;5028577;28;20441;-68
2023/05/01 06:25:21;;;;;;;4.00;3.60;;;13.20;72.50;;;;;;5026432;28;20543;-67
2023/05/01 06:27:48;;;;;;;3.50;3.20;;;13.20;72.90;;;;;;5029712;28;20411;-67
2023/05/01 06:30:15;;;;;;;4.97;3.75;;;13.30;72.60;;;;;;5031192;28;20427;-67
2023/05/01 06:32:42;;;;;;;3.60;3.30;;;13.40;72.60;;;;;;5052552;28;20413;-67
2023/05/01 06:35:09;;;;;;;4.10;3.15;;;13.50;71.20;;;;;;5051134;28;20462;-66
2023/05/01 06:37:37;;;;;;;3.80;3.40;;;13.50;70.90;;;;;;5043734;28;20737;-69
2023/05/01 06:40:04;;;;;;;3.42;3.13;;;13.50;71.10;;;;;;5042618;28;20435;-66
2023/05/01 06:42:32;;;;;;;3.30;2.97;;;13.50;71.10;;;;;;5027111;28;20502;-68
2023/05/01 06:44:59;;;;;;;4.30;3.50;;;13.60;70.90;;;;;;5029410;28;20438;-67
2023/05/01 06:47:26;;;;;;;3.65;3.35;;;13.60;71.00;;;;;;5027396;28;20450;-65
2023/05/01 06:49:53;;;;;;;3.50;3.20;;;13.60;70.20;;;;;;5028722;28;21001;-66
2023/05/01 06:52:19;;;;;;;3.47;3.17;;;13.70;70.20;;;;;;5029957;28;20426;-66
2023/05/01 06:54:46;;;;;;;3.50;3.20;;;13.70;70.60;;;;;;5025736;28;20594;-67
2023/05/01 06:57:13;;;;;;;3.25;2.95;;;13.80;70.00;;;;;;5026034;28;20442;-66
2023/05/01 06:59:41;;;;;;;3.80;3.00;;;13.80;69.90;;;;;;5028147;28;20435;-67
2023/05/01 07:02:08;;;;;;;3.72;3.13;;;13.90;69.90;;;;;;5030120;28;20768;-67
2023/05/01 07:04:34;;;;;;;3.75;3.35;;;14.00;68.80;;;;;;5024049;28;20431;-67
2023/05/01 07:07:02;;;;;;;3.55;3.25;;;14.00;68.70;;;;;;5029921;28;20436;-66
2023/05/01 07:09:28;;;;;;;4.20;3.20;;;14.10;68.90;;;;;;5028786;28;20526;-65
2023/05/01 07:11:56;;;;;;;3.47;3.05;;;14.10;68.40;;;;;;5036639;28;20422;-67
2023/05/01 07:14:23;;;;;;;3.58;3.10;;;14.20;68.30;;;;;;5027938;28;20784;-67
2023/05/01 07:16:51;;;;;;;3.63;3.05;;;14.30;67.10;;;;;;5022251;28;20436;-66
2023/05/01 07:19:17;;;;;;;3.75;3.30;;;14.30;67.10;;;;;;5028086;28;20917;-66
2023/05/01 07:21:44;;;;;;;3.10;2.72;;;14.40;66.80;;;;;;5032961;28;20425;-67
2023/05/01 07:24:12;;;;;;;3.10;2.80;;;14.40;65.00;;;;;;5032016;28;20462;-67
2023/05/01 07:26:38;;;;;;;3.58;2.97;;;14.40;64.10;;;;;;5035365;28;20916;-67
2023/05/01 07:29:05;;;;;;;3.10;2.75;;;14.40;65.10;;;;;;5032863;28;20450;-67
2023/05/01 07:31:32;;;;;;;3.60;2.80;;;14.40;64.30;;;;;;5033712;28;20533;-67
2023/05/01 07:34:00;;;;;;;3.78;2.67;;;14.50;64.30;;;;;;5030930;28;20952;-67
2023/05/01 07:36:27;;;;;;;3.38;2.80;;;14.60;62.30;;;;;;5031215;28;21051;-67
2023/05/01 07:38:54;;;;;;;3.40;2.70;;;14.60;61.80;;;;;;5049564;28;20922;-68
2023/05/01 07:41:21;;;;;;;3.00;2.70;;;14.70;61.90;;;;;;5030748;28;20435;-68
2023/05/01 07:43:48;;;;;;;4.45;3.20;;;14.80;61.50;;;;;;5031884;28;20432;-67
2023/05/01 07:46:15;;;;;;;3.05;2.75;;;14.80;61.70;;;;;;5036922;28;20423;-67
2023/05/01 07:48:43;;;;;;;3.17;2.70;;;14.90;61.50;;;;;;5042188;28;20426;-69
2023/05/01 07:51:11;;;;;;;4.65;2.40;;;15.00;61.30;;;;;;5050277;28;20422;-67
2023/05/01 07:53:39;;;;;;;2.95;2.45;;;15.00;61.00;;;;;;5050267;28;20423;-67
2023/05/01 07:56:07;;;;;;;3.50;2.40;;;15.10;60.70;;;;;;5043001;28;20526;-68
2023/05/01 07:58:34;;;;;;;3.90;2.60;;;15.10;59.70;;;;;;5051542;28;20437;-66
2023/05/01 08:01:01;;;;;;;3.95;2.60;;;15.10;60.60;;;;;;5040272;28;20411;-66
2023/05/01 08:03:29;;;;;;;3.00;2.70;;;15.10;60.50;;;;;;5038849;28;20425;-65
2023/05/01 08:05:56;;;;;;;2.85;2.60;;;15.20;61.30;;;;;;5036966;28;20435;-66
2023/05/01 08:08:24;;;;;;;2.80;2.50;;;15.30;61.00;;;;;;5035600;28;20940;-66
2023/05/01 08:10:51;;;;;;;2.78;2.58;;;15.40;60.20;;;;;;5033284;28;20939;-66
2023/05/01 08:13:20;;;;;;;3.57;2.57;;;15.50;59.90;;;;;;5042607;28;20514;-66
2023/05/01 08:15:47;;;;;;;3.80;2.60;;;15.60;59.50;;;;;;5053416;28;20435;-67
2023/05/01 08:18:19;;;;;;;2.85;2.45;;;15.60;59.20;;;;;;5044397;28;20442;-65
2023/05/01 08:20:46;;;;;;;2.77;2.53;;;15.80;58.50;;;;;;5031011;28;20502;-65
2023/05/01 08:23:13;;;;;;;3.60;2.70;;;15.80;58.40;;;;;;5024559;28;20466;-67
2023/05/01 08:25:42;;;;;;;3.15;2.50;;;15.90;57.90;;;;;;5027037;28;20436;-66
2023/05/01 08:28:09;;;;;;;2.85;2.45;;;16.10;56.70;;;;;;5027959;28;20438;-66
2023/05/01 08:30:36;;;;;;;2.93;2.63;;;16.30;55.60;;;;;;5031987;28;20475;-67
2023/05/01 08:33:02;;;;;;;2.40;2.10;;;16.30;55.00;;;;;;5041579;28;20452;-67
2023/05/01 08:35:29;;;;;;;3.85;2.70;;;16.30;55.20;;;;;;5052889;28;20435;-68
2023/05/01 08:37:56;;;;;;;3.08;2.60;;;16.50;55.30;;;;;;5040045;28;20422;-67
2023/05/01 08:40:26;;;;;;;2.95;2.75;;;16.70;54.80;;;;;;5031682;28;20427;-67
2023/05/01 08:42:54;;;;;;;6.57;2.50;;;16.90;53.30;;;;;;5037599;28;20433;-66
2023/05/01 08:45:24;;;;;;;2.83;2.40;;;17.00;52.90;;;;;;5042533;28;20424;-65
2023/05/01 08:47:52;;;;;;;3.15;2.40;;;16.90;52.50;;;;;;5042004;28;20457;-66
2023/05/01 08:50:19;;;;;;;2.50;2.30;;;16.90;52.10;;;;;;5031402;28;20426;-65
2023/05/01 08:52:47;;;;;;;2.60;2.40;;;17.10;51.70;;;;;;5029663;28;20431;-67
2023/05/01 08:55:15;;;;;;;2.70;2.50;;;17.30;51.10;;;;;;5032314;28;20431;-67
2023/05/01 08:57:45;;;;;;;3.50;2.75;;;17.30;50.40;;;;;;5034837;28;20913;-65
2023/05/01 09:00:19;;;;;;;2.90;2.40;;;17.20;51.10;;;;;;5030619;28;20411;-66
2023/05/01 09:02:46;;;;;;;3.10;2.70;;;17.30;50.20;;;;;;5027145;28;20976;-67
2023/05/01 09:05:15;;;;;;;3.90;2.80;;;17.40;50.60;;;;;;5018769;28;20450;-64
2023/05/01 09:07:43;;;;;;;3.28;2.50;;;17.60;50.10;;;;;;5026247;28;20800;-66
2023/05/01 09:10:11;;;;;;;3.03;2.70;;;17.90;49.40;;;;;;5029292;28;20485;-67
2023/05/01 09:12:39;;;;;;;4.38;2.67;;;18.00;48.10;;;;;;5029884;28;20538;-65
2023/05/01 09:15:07;;;;;;;3.03;2.60;;;17.90;48.50;;;;;;5030048;28;20527;-65
2023/05/01 09:17:36;;;;;;;2.80;2.50;;;18.00;49.60;;;;;;5033928;28;20439;-67
2023/05/01 09:20:04;;;;;;;2.90;2.50;;;18.00;47.80;;;;;;5040081;28;20851;-68
2023/05/01 09:22:33;;;;;;;2.70;2.50;;;18.10;48.20;;;;;;5029515;28;20430;-66
2023/05/01 09:24:59;;;;;;;3.15;2.70;;;18.10;48.10;;;;;;5021844;28;20442;-66
2023/05/01 09:27:27;;;;;;;3.00;2.70;;;18.10;49.10;;;;;;5033151;28;20429;-66
2023/05/01 09:29:55;;;;;;;2.80;2.60;;;18.10;48.20;;;;;;5028077;28;20436;-66
2023/05/01 09:32:26;;;;;;;2.85;2.63;;;18.10;48.30;;;;;;5033509;28;20431;-67
2023/05/01 09:34:56;;;;;;;2.80;2.60;;;18.20;48.60;;;;;;5038291;28;20470;-67
2023/05/01 09:37:27;;;;;;;3.00;2.60;;;18.30;48.40;;;;;;5030145;28;20431;-68
2023/05/01 09:40:05;;;;;;;3.37;2.80;;;18.60;48.40;;;;;;5031674;28;20558;-66
2023/05/01 09:42:32;;;;;;;2.85;2.50;;;18.70;46.90;;;;;;5020107;28;20431;-67
2023/05/01 09:44:59;;;;;;;3.60;2.70;;;18.70;47.00;;;;;;5033815;28;20470;-69
2023/05/01 09:47:27;;;;;;;3.10;2.70;;;18.80;47.80;;;;;;5037403;28;20427;-68
2023/05/01 09:49:58;;;;;;;2.90;2.70;;;19.00;47.10;;;;;;5043287;28;20904;-66
2023/05/01 09:52:26;;;;;;;2.92;2.60;;;19.20;46.30;;;;;;5029571;28;20430;-66
2023/05/01 09:55:12;;;;;;;3.63;2.60;;;19.40;45.80;;;;;;5026577;28;20800;-67
2023/05/01 09:57:41;;;;;;;3.00;2.70;;;19.60;46.20;;;;;;5029330;28;20802;-67
2023/05/01 10:00:09;;;;;;;2.90;2.60;;;19.80;45.30;;;;;;5035259;28;20427;-66
2023/05/01 10:02:36;;;;;;;3.42;2.83;;;20.10;44.30;;;;;;5050130;28;20505;-65
2023/05/01 10:05:06;;;;;;;2.97;2.40;;;20.20;44.10;;;;;;5030506;28;20488;-65
2023/05/01 10:07:33;;;;;;;3.00;2.70;;;20.30;43.90;;;;;;5027223;28;20817;-67
2023/05/01 10:10:15;;;;;;;2.70;2.50;;;20.50;43.50;;;;;;5030007;28;20929;-66
2023/05/01 10:12:41;;;;;;;4.40;2.80;;;20.70;43.80;;;;;;5037237;28;20437;-68
2023/05/01 10:15:10;;;;;;;2.70;2.38;;;21.10;42.70;;;;;;5029486;28;20472;-66
2023/05/01 10:17:39;;;;;;;2.70;2.45;;;21.50;41.70;;;;;;5040755;28;20466;-65
2023/05/01 10:20:10;;;;;;;2.53;2.33;;;21.80;40.90;;;;;;5034529;28;20421;-66
2023/05/01 10:22:37;;;;;;;2.60;2.10;;;22.00;40.30;;;;;;5032493;28;20422;-67
2023/05/01 10:25:07;;;;;;;2.60;2.40;;;22.20;39.90;;;;;;5033443;28;20821;-66
2023/05/01 10:27:35;;;;;;;3.30;2.20;;;22.40;39.00;;;;;;5032315;28;20433;-68
2023/05/01 10:30:05;;;;;;;2.20;2.00;;;22.50;38.10;;;;;;5030268;28;20419;-66
2023/05/01 10:32:32;;;;;;;2.70;2.20;;;22.60;38.50;;;;;;5024699;28;20431;-66
2023/05/01 10:35:02;;;;;;;2.47;2.03;;;22.80;37.30;;;;;;5030299;28;20912;-65
2023/05/01 10:37:37;;;;;;;2.85;1.98;;;23.00;37.90;;;;;;5031195;28;20419;-67
2023/05/01 10:40:46;;;;;;;2.30;2.10;;;23.20;38.00;;;;;;5038838;28;20482;-66
2023/05/01 10:43:15;;;;;;;2.70;2.22;;;23.40;36.80;;;;;;5052520;28;20425;-67
2023/05/01 10:45:42;;;;;;;2.70;2.40;;;23.70;34.90;;;;;;5051395;28;20449;-66
2023/05/01 10:48:09;;;;;;;2.55;1.90;;;23.90;34.80;;;;;;5032422;28;20504;-66
2023/05/01 10:51:06;;;;;;;2.53;2.30;;;24.20;36.10;;;;;;5028215;28;20419;-68
2023/05/01 10:53:34;;;;;;;2.80;1.85;;;24.30;34.60;;;;;;5038639;28;20773;-68
2023/05/01 10:56:03;;;;;;;2.50;1.90;;;24.30;35.00;;;;;;5034235;28;20438;-68
2023/05/01 10:59:03;;;;;;;3.00;1.92;;;24.30;34.90;;;;;;5032265;28;20435;-67
2023/05/01 11:01:32;;;;;;;2.90;2.17;;;24.40;34.20;;;;;;4958238;28;20428;-68
2023/05/01 11:03:59;;;;;;;2.28;2.08;;;24.50;34.30;;;;;;5036858;28;20436;-67
2023/05/01 11:06:26;;;;;;;3.17;2.13;;;24.50;34.20;;;;;;5048712;28;20501;-71
2023/05/01 11:08:55;;;;;;;2.47;2.10;;;24.40;34.10;;;;;;5053269;22;20439;-67
2023/05/01 11:11:50;;;;;;;3.50;2.20;;;24.30;33.40;;;;;;5043943;28;20906;-67
2023/05/01 11:14:17;;;;;;;2.30;1.80;;;24.40;34.00;;;;;;5041910;28;20445;-66
2023/05/01 11:16:47;;;;;;;2.53;2.08;;;24.40;33.70;;;;;;5044813;28;20428;-64
2023/05/01 11:19:49;;;;;;;1.97;1.70;;;24.50;34.00;;;;;;5042625;28;20492;-67
2023/05/01 11:22:17;;;;;;;2.15;1.63;;;24.60;33.60;;;;;;5024143;28;20901;-65
2023/05/01 11:24:46;;;;;;;1.88;1.70;;;24.70;32.50;;;;;;5044701;28;20520;-66
2023/05/01 11:27:14;;;;;;;1.80;1.50;;;24.90;30.80;;;;;;5045516;28;20432;-66
2023/05/01 11:29:44;;;;;;;2.00;1.70;;;25.00;32.30;;;;;;5049704;28;20417;-65
2023/05/01 11:32:18;;;;;;;2.83;1.60;;;25.00;32.30;;;;;;5045272;28;20996;-65
2023/05/01 11:34:45;;;;;;;2.03;1.65;;;25.00;31.70;;;;;;5046660;28;20437;-66
2023/05/01 11:37:13;;;;;;;2.30;1.90;;;25.10;30.40;;;;;;5043084;28;20842;-65
2023/05/01 11:39:51;;;;;;;2.50;1.60;;;25.00;30.10;;;;;;5044560;28;20433;-65
2023/05/01 11:42:21;;;;;;;1.75;1.58;;;25.00;31.60;;;;;;5044249;28;20526;-65
2023/05/01 11:45:06;;;;;;;1.60;1.40;;;25.00;30.00;;;;;;5043380;28;20498;-65
2023/05/01 11:47:33;;;;;;;1.75;1.65;;;24.80;31.20;;;;;;5039956;28;20526;-65
2023/05/01 11:50:01;;;;;;;2.00;1.60;;;24.60;32.10;;;;;;5047384;28;20499;-67
2023/05/01 11:52:28;;;;;;;1.85;1.50;;;24.50;30.80;;;;;;5048227;28;20534;-67
2023/05/01 11:54:56;;;;;;;2.90;1.70;;;24.30;30.00;;;;;;5044528;28;20588;-66
2023/05/01 11:57:23;;;;;;;2.30;1.87;;;24.00;31.80;;;;;;5045606;28;20515;-65
2023/05/01 11:59:50;;;;;;;1.85;1.50;;;23.90;31.70;;;;;;5044633;28;20429;-66
2023/05/01 12:02:21;;;;;;;1.55;1.45;;;23.80;31.40;;;;;;5041844;28;20436;-66
2023/05/01 12:04:47;;;;;;;1.92;1.60;;;23.70;32.40;;;;;;5041400;28;20448;-66
2023/05/01 12:07:21;;;;;;;1.98;1.67;;;23.80;32.80;;;;;;5042417;28;20796;-66
2023/05/01 12:09:49;;;;;;;1.50;1.40;;;23.90;32.70;;;;;;5039886;28;20953;-66
2023/05/01 12:12:18;;;;;;;1.40;1.30;;;23.90;31.20;;;;;;5042099;28;20880;-67
2023/05/01 12:14:45;;;;;;;1.52;1.35;;;23.90;31.20;;;;;;5045986;28;20462;-65
2023/05/01 12:17:11;;;;;;;2.03;1.70;;;23.80;31.50;;;;;;5045332;28;20485;-65
2023/05/01 12:19:47;;;;;;;1.80;1.60;;;23.60;31.40;;;;;;5045464;28;20413;-65
2023/05/01 12:22:14;;;;;;;1.90;1.60;;;23.40;32.20;;;;;;5045256;28;20849;-65
2023/05/01 12:24:49;;;;;;;4.18;1.80;;;23.10;32.90;;;;;;5046952;28;20555;-66
2023/05/01 12:27:18;;;;;;;2.08;1.75;;;23.00;34.10;;;;;;5040065;28;20463;-67
2023/05/01 12:29:46;;;;;;;2.75;1.70;;;23.10;33.70;;;;;;5036341;28;20476;-63
2023/05/01 12:32:14;;;;;;;2.30;1.40;;;23.30;33.40;;;;;;5040223;28;20433;-65
2023/05/01 12:34:41;;;;;;;2.20;1.77;;;23.40;33.10;;;;;;5053643;28;20422;-62
2023/05/01 12:37:08;;;;;;;4.20;1.80;;;23.30;31.90;;;;;;5058253;28;20415;-63
2023/05/01 12:39:41;;;;;;;2.20;1.50;;;23.20;34.20;;;;;;5051015;28;20431;-64
2023/05/01 12:42:15;;;;;;;1.88;1.50;;;23.40;31.30;;;;;;5042338;28;20455;-62
2023/05/01 12:44:44;;;;;;;1.55;1.40;;;23.40;34.40;;;;;;5040781;28;20484;-63
2023/05/01 12:47:12;;;;;;;2.30;1.80;;;23.60;33.50;;;;;;5051331;28;20430;-64
2023/05/01 12:49:40;;;;;;;2.50;1.40;;;23.70;31.00;;;;;;5053945;28;20778;-65
2023/05/01 12:52:08;;;;;;;1.80;1.70;;;23.90;32.80;;;;;;5044421;28;20784;-65
2023/05/01 12:54:37;;;;;;;2.38;1.60;;;24.20;32.90;;;;;;5044244;28;20943;-62
2023/05/01 12:57:08;;;;;;;1.20;1.10;;;24.90;30.50;;;;;;5033067;28;20429;-64